sensor_id;sensor_type;location;lat;lon;timestamp;P1;durP1;ratioP1;P2;durP2;ratioP2
14474;SDS011;7323;50.848;4.334;2023-01-28T00:00:56;12.90;;;10.07;;
14474;SDS011;7323;50.848;4.334;2023-01-28T00:03:22;11.97;;;9.90;;
14474;SDS011;7323;50.848;4.334;2023-01-28T00:05:48;11.57;;;9.97;;
14474;SDS011;7323;50.848;4.334;2023-01-28T00:08:14;11.80;;;10.43;;
14474;SDS011;7323;50.848;4.334;2023-01-28T00:10:40;12.20;;;10.10;;
14474;SDS011;7323;50.848;4.334;2023-01-28T00:13:11;11.90;;;10.60;;
14474;SDS011;7323;50.848;4.334;2023-01-28T00:15:41;10.90;;;9.40;;
14474;SDS011;7323;50.848;4.334;2023-01-28T00:18:06;11.33;;;9.23;;
14474;SDS011;7323;50.848;4.334;2023-01-28T00:20:32;11.53;;;9.50;;
14474;SDS011;7323;50.848;4.334;2023-01-28T00:22:59;12.33;;;10.70;;
14474;SDS011;7323;50.848;4.334;2023-01-28T00:25:24;11.13;;;9.50;;
14474;SDS011;7323;50.848;4.334;2023-01-28T00:27:50;10.90;;;9.40;;
14474;SDS011;7323;50.848;4.334;2023-01-28T00:30:16;12.40;;;10.07;;
14474;SDS011;7323;50.848;4.334;2023-01-28T00:32:43;10.80;;;9.70;;
14474;SDS011;7323;50.848;4.334;2023-01-28T00:35:10;11.80;;;10.23;;
14474;SDS011;7323;50.848;4.334;2023-01-28T00:37:35;11.73;;;9.77;;
14474;SDS011;7323;50.848;4.334;2023-01-28T00:40:03;11.60;;;9.87;;
14474;SDS011;7323;50.848;4.334;2023-01-28T00:42:29;13.07;;;9.83;;
14474;SDS011;7323;50.848;4.334;2023-01-28T00:44:54;11.23;;;9.57;;
14474;SDS011;7323;50.848;4.334;2023-01-28T00:47:20;15.20;;;10.20;;
14474;SDS011;7323;50.848;4.334;2023-01-28T00:49:46;11.63;;;9.50;;
14474;SDS011;7323;50.848;4.334;2023-01-28T00:52:11;10.40;;;8.23;;
14474;SDS011;7323;50.848;4.334;2023-01-28T00:54:37;12.20;;;10.03;;
14474;SDS011;7323;50.848;4.334;2023-01-28T00:57:04;12.27;;;9.77;;
14474;SDS011;7323;50.848;4.334;2023-01-28T00:59:29;12.00;;;9.90;;
14474;SDS011;7323;50.848;4.334;2023-01-28T01:01:55;10.67;;;9.57;;
14474;SDS011;7323;50.848;4.334;2023-01-28T01:04:36;11.23;;;9.03;;
14474;SDS011;7323;50.848;4.334;2023-01-28T01:07:01;10.10;;;7.83;;
14474;SDS011;7323;50.848;4.334;2023-01-28T01:09:27;10.43;;;8.93;;
14474;SDS011;7323;50.848;4.334;2023-01-28T01:11:54;9.80;;;8.30;;
14474;SDS011;7323;50.848;4.334;2023-01-28T01:14:19;11.43;;;9.23;;
14474;SDS011;7323;50.848;4.334;2023-01-28T01:16:48;10.57;;;8.30;;
14474;SDS011;7323;50.848;4.334;2023-01-28T01:19:21;10.53;;;8.43;;
14474;SDS011;7323;50.848;4.334;2023-01-28T01:21:49;11.40;;;8.20;;
14474;SDS011;7323;50.848;4.334;2023-01-28T01:24:14;11.90;;;9.03;;
14474;SDS011;7323;50.848;4.334;2023-01-28T01:26:40;12.13;;;9.27;;
14474;SDS011;7323;50.848;4.334;2023-01-28T01:29:06;13.30;;;10.17;;
14474;SDS011;7323;50.848;4.334;2023-01-28T01:31:34;12.00;;;10.00;;
14474;SDS011;7323;50.848;4.334;2023-01-28T01:34:00;11.57;;;9.47;;
14474;SDS011;7323;50.848;4.334;2023-01-28T01:36:28;13.20;;;10.63;;
14474;SDS011;7323;50.848;4.334;2023-01-28T01:38:56;13.13;;;11.23;;
14474;SDS011;7323;50.848;4.334;2023-01-28T01:41:24;14.17;;;11.20;;
14474;SDS011;7323;50.848;4.334;2023-01-28T01:44:01;11.77;;;10.00;;
14474;SDS011;7323;50.848;4.334;2023-01-28T01:46:32;13.23;;;10.67;;
14474;SDS011;7323;50.848;4.334;2023-01-28T01:49:05;13.70;;;10.97;;
14474;SDS011;7323;50.848;4.334;2023-01-28T01:51:48;12.87;;;10.17;;
14474;SDS011;7323;50.848;4.334;2023-01-28T01:54:18;12.90;;;10.10;;
14474;SDS011;7323;50.848;4.334;2023-01-28T01:56:46;13.17;;;10.33;;
14474;SDS011;7323;50.848;4.334;2023-01-28T01:59:14;12.20;;;10.07;;
14474;SDS011;7323;50.848;4.334;2023-01-28T02:01:46;13.97;;;10.17;;
14474;SDS011;7323;50.848;4.334;2023-01-28T02:04:18;14.13;;;10.67;;
14474;SDS011;7323;50.848;4.334;2023-01-28T02:06:49;13.70;;;10.87;;
14474;SDS011;7323;50.848;4.334;2023-01-28T02:09:25;13.50;;;10.57;;
14474;SDS011;7323;50.848;4.334;2023-01-28T02:15:01;12.70;;;9.93;;
14474;SDS011;7323;50.848;4.334;2023-01-28T02:17:37;12.47;;;9.90;;
14474;SDS011;7323;50.848;4.334;2023-01-28T02:20:04;13.07;;;10.30;;
14474;SDS011;7323;50.848;4.334;2023-01-28T02:30:59;13.37;;;10.67;;
14474;SDS011;7323;50.848;4.334;2023-01-28T02:33:40;13.00;;;10.43;;
14474;SDS011;7323;50.848;4.334;2023-01-28T02:38:54;13.53;;;10.63;;
14474;SDS011;7323;50.848;4.334;2023-01-28T02:41:31;13.40;;;10.47;;
14474;SDS011;7323;50.848;4.334;2023-01-28T02:44:00;16.00;;;12.77;;
14474;SDS011;7323;50.848;4.334;2023-01-28T02:49:15;13.27;;;10.43;;
14474;SDS011;7323;50.848;4.334;2023-01-28T02:51:49;12.97;;;10.23;;
14474;SDS011;7323;50.848;4.334;2023-01-28T03:05:16;14.30;;;11.00;;
14474;SDS011;7323;50.848;4.334;2023-01-28T03:07:49;13.23;;;10.20;;
14474;SDS011;7323;50.848;4.334;2023-01-28T03:10:17;12.90;;;10.17;;
14474;SDS011;7323;50.848;4.334;2023-01-28T03:12:48;13.20;;;10.57;;
14474;SDS011;7323;50.848;4.334;2023-01-28T03:15:38;15.57;;;11.00;;
14474;SDS011;7323;50.848;4.334;2023-01-28T03:18:28;14.33;;;10.60;;
14474;SDS011;7323;50.848;4.334;2023-01-28T03:21:33;13.17;;;9.70;;
14474;SDS011;7323;50.848;4.334;2023-01-28T03:24:29;13.97;;;10.57;;
14474;SDS011;7323;50.848;4.334;2023-01-28T03:27:17;14.03;;;10.97;;
14474;SDS011;7323;50.848;4.334;2023-01-28T03:30:05;14.17;;;10.27;;
14474;SDS011;7323;50.848;4.334;2023-01-28T03:33:00;13.67;;;9.57;;
14474;SDS011;7323;50.848;4.334;2023-01-28T03:35:46;15.13;;;11.13;;
14474;SDS011;7323;50.848;4.334;2023-01-28T03:38:32;15.27;;;11.00;;
14474;SDS011;7323;50.848;4.334;2023-01-28T03:41:07;13.87;;;10.10;;
14474;SDS011;7323;50.848;4.334;2023-01-28T03:43:37;14.50;;;11.13;;
14474;SDS011;7323;50.848;4.334;2023-01-28T03:46:03;14.77;;;10.93;;
14474;SDS011;7323;50.848;4.334;2023-01-28T03:48:30;14.67;;;11.53;;
14474;SDS011;7323;50.848;4.334;2023-01-28T03:50:56;14.50;;;10.83;;
14474;SDS011;7323;50.848;4.334;2023-01-28T03:53:24;14.27;;;10.87;;
14474;SDS011;7323;50.848;4.334;2023-01-28T03:55:51;14.00;;;10.43;;
14474;SDS011;7323;50.848;4.334;2023-01-28T03:58:18;14.33;;;11.30;;
14474;SDS011;7323;50.848;4.334;2023-01-28T04:00:46;14.77;;;11.80;;
14474;SDS011;7323;50.848;4.334;2023-01-28T04:03:13;15.10;;;10.87;;
14474;SDS011;7323;50.848;4.334;2023-01-28T04:08:30;14.40;;;10.10;;
14474;SDS011;7323;50.848;4.334;2023-01-28T04:10:56;14.50;;;10.80;;
14474;SDS011;7323;50.848;4.334;2023-01-28T04:13:21;15.80;;;12.17;;
14474;SDS011;7323;50.848;4.334;2023-01-28T04:15:48;16.40;;;12.20;;
14474;SDS011;7323;50.848;4.334;2023-01-28T04:18:15;14.63;;;11.77;;
14474;SDS011;7323;50.848;4.334;2023-01-28T04:20:42;13.70;;;10.80;;
14474;SDS011;7323;50.848;4.334;2023-01-28T04:23:07;15.57;;;11.37;;
14474;SDS011;7323;50.848;4.334;2023-01-28T04:25:33;13.40;;;10.63;;
14474;SDS011;7323;50.848;4.334;2023-01-28T04:27:59;14.27;;;10.93;;
14474;SDS011;7323;50.848;4.334;2023-01-28T04:30:25;16.03;;;11.53;;
14474;SDS011;7323;50.848;4.334;2023-01-28T04:32:52;15.50;;;11.27;;
14474;SDS011;7323;50.848;4.334;2023-01-28T04:35:18;15.70;;;12.03;;
14474;SDS011;7323;50.848;4.334;2023-01-28T04:37:44;13.70;;;10.50;;
14474;SDS011;7323;50.848;4.334;2023-01-28T04:40:10;14.93;;;11.53;;
14474;SDS011;7323;50.848;4.334;2023-01-28T04:42:37;14.60;;;11.03;;
14474;SDS011;7323;50.848;4.334;2023-01-28T04:45:04;15.60;;;11.33;;
14474;SDS011;7323;50.848;4.334;2023-01-28T04:47:30;13.53;;;10.23;;
14474;SDS011;7323;50.848;4.334;2023-01-28T04:49:56;14.70;;;11.67;;
14474;SDS011;7323;50.848;4.334;2023-01-28T04:52:22;13.80;;;10.33;;
14474;SDS011;7323;50.848;4.334;2023-01-28T04:54:48;14.27;;;9.93;;
14474;SDS011;7323;50.848;4.334;2023-01-28T04:57:13;14.27;;;10.60;;
14474;SDS011;7323;50.848;4.334;2023-01-28T04:59:40;14.50;;;10.83;;
14474;SDS011;7323;50.848;4.334;2023-01-28T05:02:06;15.53;;;11.57;;
14474;SDS011;7323;50.848;4.334;2023-01-28T05:04:32;14.27;;;11.13;;
14474;SDS011;7323;50.848;4.334;2023-01-28T05:06:57;14.30;;;11.13;;
14474;SDS011;7323;50.848;4.334;2023-01-28T05:09:23;12.33;;;9.17;;
14474;SDS011;7323;50.848;4.334;2023-01-28T05:11:48;12.70;;;9.67;;
14474;SDS011;7323;50.848;4.334;2023-01-28T05:14:14;13.47;;;9.00;;
14474;SDS011;7323;50.848;4.334;2023-01-28T05:16:40;14.23;;;10.33;;
14474;SDS011;7323;50.848;4.334;2023-01-28T05:19:06;13.77;;;10.50;;
14474;SDS011;7323;50.848;4.334;2023-01-28T05:21:32;14.80;;;10.80;;
14474;SDS011;7323;50.848;4.334;2023-01-28T05:23:58;14.00;;;10.30;;
14474;SDS011;7323;50.848;4.334;2023-01-28T05:26:23;12.13;;;9.20;;
14474;SDS011;7323;50.848;4.334;2023-01-28T05:28:52;12.30;;;9.17;;
14474;SDS011;7323;50.848;4.334;2023-01-28T05:34:12;12.23;;;10.00;;
14474;SDS011;7323;50.848;4.334;2023-01-28T05:36:38;11.93;;;9.80;;
14474;SDS011;7323;50.848;4.334;2023-01-28T05:39:05;13.03;;;9.90;;
14474;SDS011;7323;50.848;4.334;2023-01-28T05:41:31;11.90;;;8.80;;
14474;SDS011;7323;50.848;4.334;2023-01-28T05:43:57;13.00;;;10.60;;
14474;SDS011;7323;50.848;4.334;2023-01-28T05:46:24;11.70;;;8.93;;
14474;SDS011;7323;50.848;4.334;2023-01-28T05:48:50;11.63;;;9.27;;
14474;SDS011;7323;50.848;4.334;2023-01-28T05:51:16;12.80;;;9.97;;
14474;SDS011;7323;50.848;4.334;2023-01-28T05:53:42;13.77;;;9.33;;
14474;SDS011;7323;50.848;4.334;2023-01-28T05:56:07;14.40;;;9.80;;
14474;SDS011;7323;50.848;4.334;2023-01-28T05:58:33;12.00;;;9.60;;
14474;SDS011;7323;50.848;4.334;2023-01-28T06:00:58;13.17;;;10.40;;
14474;SDS011;7323;50.848;4.334;2023-01-28T06:03:24;12.73;;;9.60;;
14474;SDS011;7323;50.848;4.334;2023-01-28T06:05:50;12.33;;;9.90;;
14474;SDS011;7323;50.848;4.334;2023-01-28T06:08:17;13.80;;;9.33;;
14474;SDS011;7323;50.848;4.334;2023-01-28T06:10:46;11.57;;;10.13;;
14474;SDS011;7323;50.848;4.334;2023-01-28T06:13:14;12.63;;;10.30;;
14474;SDS011;7323;50.848;4.334;2023-01-28T06:15:40;10.93;;;8.77;;
14474;SDS011;7323;50.848;4.334;2023-01-28T06:18:05;11.93;;;9.43;;
14474;SDS011;7323;50.848;4.334;2023-01-28T06:20:34;11.53;;;9.23;;
14474;SDS011;7323;50.848;4.334;2023-01-28T06:23:00;10.83;;;8.40;;
14474;SDS011;7323;50.848;4.334;2023-01-28T06:25:26;10.40;;;9.03;;
14474;SDS011;7323;50.848;4.334;2023-01-28T06:27:52;10.73;;;8.60;;
14474;SDS011;7323;50.848;4.334;2023-01-28T06:30:18;11.40;;;9.20;;
14474;SDS011;7323;50.848;4.334;2023-01-28T06:32:44;11.20;;;9.10;;
14474;SDS011;7323;50.848;4.334;2023-01-28T06:35:10;13.03;;;9.37;;
14474;SDS011;7323;50.848;4.334;2023-01-28T06:37:36;11.80;;;9.57;;
14474;SDS011;7323;50.848;4.334;2023-01-28T06:40:02;10.77;;;8.97;;
14474;SDS011;7323;50.848;4.334;2023-01-28T06:42:29;12.87;;;9.27;;
14474;SDS011;7323;50.848;4.334;2023-01-28T06:44:55;10.20;;;8.70;;
14474;SDS011;7323;50.848;4.334;2023-01-28T06:47:23;11.20;;;8.33;;
14474;SDS011;7323;50.848;4.334;2023-01-28T06:49:49;10.33;;;9.13;;
14474;SDS011;7323;50.848;4.334;2023-01-28T06:52:14;11.67;;;9.33;;
14474;SDS011;7323;50.848;4.334;2023-01-28T06:54:43;12.00;;;9.10;;
14474;SDS011;7323;50.848;4.334;2023-01-28T06:57:10;10.87;;;8.87;;
14474;SDS011;7323;50.848;4.334;2023-01-28T06:59:39;12.07;;;9.57;;
14474;SDS011;7323;50.848;4.334;2023-01-28T07:02:04;12.43;;;9.60;;
14474;SDS011;7323;50.848;4.334;2023-01-28T07:04:30;12.10;;;9.50;;
14474;SDS011;7323;50.848;4.334;2023-01-28T07:07:04;12.40;;;9.47;;
14474;SDS011;7323;50.848;4.334;2023-01-28T07:09:30;12.43;;;9.63;;
14474;SDS011;7323;50.848;4.334;2023-01-28T07:11:59;16.50;;;10.87;;
14474;SDS011;7323;50.848;4.334;2023-01-28T07:14:32;12.53;;;9.50;;
14474;SDS011;7323;50.848;4.334;2023-01-28T07:17:00;12.47;;;9.20;;
14474;SDS011;7323;50.848;4.334;2023-01-28T07:19:29;10.57;;;8.37;;
14474;SDS011;7323;50.848;4.334;2023-01-28T07:21:55;11.80;;;9.67;;
14474;SDS011;7323;50.848;4.334;2023-01-28T07:24:23;13.23;;;9.30;;
14474;SDS011;7323;50.848;4.334;2023-01-28T07:26:48;12.30;;;9.57;;
14474;SDS011;7323;50.848;4.334;2023-01-28T07:29:15;12.10;;;9.97;;
14474;SDS011;7323;50.848;4.334;2023-01-28T07:31:41;11.30;;;8.63;;
14474;SDS011;7323;50.848;4.334;2023-01-28T07:34:07;12.30;;;9.10;;
14474;SDS011;7323;50.848;4.334;2023-01-28T07:36:33;13.53;;;10.93;;
14474;SDS011;7323;50.848;4.334;2023-01-28T07:38:59;13.43;;;10.10;;
14474;SDS011;7323;50.848;4.334;2023-01-28T07:41:25;12.70;;;10.40;;
14474;SDS011;7323;50.848;4.334;2023-01-28T07:43:52;12.30;;;9.60;;
14474;SDS011;7323;50.848;4.334;2023-01-28T07:46:17;13.50;;;10.27;;
14474;SDS011;7323;50.848;4.334;2023-01-28T07:48:43;11.77;;;9.63;;
14474;SDS011;7323;50.848;4.334;2023-01-28T07:51:10;13.00;;;9.87;;
14474;SDS011;7323;50.848;4.334;2023-01-28T07:53:38;12.73;;;10.23;;
14474;SDS011;7323;50.848;4.334;2023-01-28T07:56:04;13.00;;;9.90;;
14474;SDS011;7323;50.848;4.334;2023-01-28T07:58:30;12.33;;;10.10;;
14474;SDS011;7323;50.848;4.334;2023-01-28T08:00:58;12.87;;;10.03;;
14474;SDS011;7323;50.848;4.334;2023-01-28T08:03:25;13.20;;;10.60;;
14474;SDS011;7323;50.848;4.334;2023-01-28T08:05:52;11.47;;;9.97;;
14474;SDS011;7323;50.848;4.334;2023-01-28T08:08:20;12.23;;;10.20;;
14474;SDS011;7323;50.848;4.334;2023-01-28T08:10:49;12.67;;;10.30;;
14474;SDS011;7323;50.848;4.334;2023-01-28T08:13:15;13.07;;;10.07;;
14474;SDS011;7323;50.848;4.334;2023-01-28T08:15:42;12.10;;;9.60;;
14474;SDS011;7323;50.848;4.334;2023-01-28T08:18:09;12.03;;;9.67;;
14474;SDS011;7323;50.848;4.334;2023-01-28T08:20:39;13.17;;;10.20;;
14474;SDS011;7323;50.848;4.334;2023-01-28T08:23:10;13.40;;;9.27;;
14474;SDS011;7323;50.848;4.334;2023-01-28T08:25:43;14.83;;;11.03;;
14474;SDS011;7323;50.848;4.334;2023-01-28T08:28:10;14.37;;;10.93;;
14474;SDS011;7323;50.848;4.334;2023-01-28T08:30:37;12.97;;;10.13;;
14474;SDS011;7323;50.848;4.334;2023-01-28T08:33:03;13.57;;;10.37;;
14474;SDS011;7323;50.848;4.334;2023-01-28T08:35:30;14.53;;;11.57;;
14474;SDS011;7323;50.848;4.334;2023-01-28T08:38:00;14.30;;;10.80;;
14474;SDS011;7323;50.848;4.334;2023-01-28T08:40:28;17.33;;;12.40;;
14474;SDS011;7323;50.848;4.334;2023-01-28T08:42:54;14.27;;;10.23;;
14474;SDS011;7323;50.848;4.334;2023-01-28T08:45:20;13.77;;;10.73;;
14474;SDS011;7323;50.848;4.334;2023-01-28T08:47:53;13.33;;;10.70;;
14474;SDS011;7323;50.848;4.334;2023-01-28T08:50:20;12.60;;;9.93;;
14474;SDS011;7323;50.848;4.334;2023-01-28T08:52:47;14.13;;;10.30;;
14474;SDS011;7323;50.848;4.334;2023-01-28T08:55:14;13.83;;;10.47;;
14474;SDS011;7323;50.848;4.334;2023-01-28T08:57:40;14.43;;;10.00;;
14474;SDS011;7323;50.848;4.334;2023-01-28T09:00:06;15.50;;;11.27;;
14474;SDS011;7323;50.848;4.334;2023-01-28T09:02:35;15.20;;;11.77;;
14474;SDS011;7323;50.848;4.334;2023-01-28T09:05:01;13.80;;;10.87;;
14474;SDS011;7323;50.848;4.334;2023-01-28T09:07:28;13.77;;;9.97;;
14474;SDS011;7323;50.848;4.334;2023-01-28T09:09:53;14.57;;;10.90;;
14474;SDS011;7323;50.848;4.334;2023-01-28T09:12:19;14.17;;;10.73;;
14474;SDS011;7323;50.848;4.334;2023-01-28T09:14:46;15.40;;;11.67;;
14474;SDS011;7323;50.848;4.334;2023-01-28T09:17:11;16.40;;;12.30;;
14474;SDS011;7323;50.848;4.334;2023-01-28T09:19:38;14.57;;;11.67;;
14474;SDS011;7323;50.848;4.334;2023-01-28T09:22:08;14.97;;;11.70;;
14474;SDS011;7323;50.848;4.334;2023-01-28T09:24:34;14.33;;;11.60;;
14474;SDS011;7323;50.848;4.334;2023-01-28T09:26:59;15.20;;;12.23;;
14474;SDS011;7323;50.848;4.334;2023-01-28T09:29:25;16.03;;;11.40;;
14474;SDS011;7323;50.848;4.334;2023-01-28T09:31:51;15.37;;;11.20;;
14474;SDS011;7323;50.848;4.334;2023-01-28T09:34:16;14.67;;;11.63;;
14474;SDS011;7323;50.848;4.334;2023-01-28T09:36:43;14.93;;;11.20;;
14474;SDS011;7323;50.848;4.334;2023-01-28T09:39:09;16.33;;;12.07;;
14474;SDS011;7323;50.848;4.334;2023-01-28T09:44:35;16.77;;;11.73;;
14474;SDS011;7323;50.848;4.334;2023-01-28T09:47:14;18.30;;;12.60;;
14474;SDS011;7323;50.848;4.334;2023-01-28T09:49:56;20.10;;;15.17;;
14474;SDS011;7323;50.848;4.334;2023-01-28T09:52:33;19.87;;;14.67;;
14474;SDS011;7323;50.848;4.334;2023-01-28T09:57:42;20.37;;;14.20;;
14474;SDS011;7323;50.848;4.334;2023-01-28T10:00:15;19.23;;;13.43;;
14474;SDS011;7323;50.848;4.334;2023-01-28T10:05:42;18.53;;;12.80;;
14474;SDS011;7323;50.848;4.334;2023-01-28T10:08:28;18.53;;;12.70;;
14474;SDS011;7323;50.848;4.334;2023-01-28T10:11:25;16.10;;;11.77;;
14474;SDS011;7323;50.848;4.334;2023-01-28T10:14:09;20.00;;;13.47;;
14474;SDS011;7323;50.848;4.334;2023-01-28T10:19:16;17.67;;;13.83;;
14474;SDS011;7323;50.848;4.334;2023-01-28T10:21:53;19.03;;;13.27;;
14474;SDS011;7323;50.848;4.334;2023-01-28T10:24:34;18.10;;;12.67;;
14474;SDS011;7323;50.848;4.334;2023-01-28T10:27:23;16.47;;;11.90;;
14474;SDS011;7323;50.848;4.334;2023-01-28T10:29:53;17.70;;;12.83;;
14474;SDS011;7323;50.848;4.334;2023-01-28T10:32:22;16.30;;;12.00;;
14474;SDS011;7323;50.848;4.334;2023-01-28T10:37:51;18.00;;;12.50;;
14474;SDS011;7323;50.848;4.334;2023-01-28T10:40:21;17.30;;;12.97;;
14474;SDS011;7323;50.848;4.334;2023-01-28T10:42:47;15.27;;;11.77;;
14474;SDS011;7323;50.848;4.334;2023-01-28T10:50:25;17.67;;;12.30;;
14474;SDS011;7323;50.848;4.334;2023-01-28T10:53:02;17.00;;;11.80;;
14474;SDS011;7323;50.848;4.334;2023-01-28T10:58:16;16.87;;;12.03;;
14474;SDS011;7323;50.848;4.334;2023-01-28T11:00:46;17.77;;;12.23;;
14474;SDS011;7323;50.848;4.334;2023-01-28T11:03:20;16.00;;;12.07;;
14474;SDS011;7323;50.848;4.334;2023-01-28T11:05:51;15.03;;;12.30;;
14474;SDS011;7323;50.848;4.334;2023-01-28T11:08:21;17.13;;;12.30;;
14474;SDS011;7323;50.848;4.334;2023-01-28T11:10:51;15.93;;;12.33;;
14474;SDS011;7323;50.848;4.334;2023-01-28T11:13:22;15.67;;;11.80;;
14474;SDS011;7323;50.848;4.334;2023-01-28T11:21:32;18.50;;;12.70;;
14474;SDS011;7323;50.848;4.334;2023-01-28T11:24:12;17.43;;;13.07;;
14474;SDS011;7323;50.848;4.334;2023-01-28T11:26:47;16.67;;;12.23;;
14474;SDS011;7323;50.848;4.334;2023-01-28T11:29:31;17.53;;;12.63;;
14474;SDS011;7323;50.848;4.334;2023-01-28T11:31:58;16.83;;;12.17;;
14474;SDS011;7323;50.848;4.334;2023-01-28T11:34:27;18.17;;;12.77;;
14474;SDS011;7323;50.848;4.334;2023-01-28T11:37:00;17.40;;;12.47;;
14474;SDS011;7323;50.848;4.334;2023-01-28T11:39:28;15.70;;;11.90;;
14474;SDS011;7323;50.848;4.334;2023-01-28T11:42:01;15.30;;;11.47;;
14474;SDS011;7323;50.848;4.334;2023-01-28T11:44:47;19.60;;;12.93;;
14474;SDS011;7323;50.848;4.334;2023-01-28T11:47:17;16.73;;;12.03;;
14474;SDS011;7323;50.848;4.334;2023-01-28T11:49:51;16.13;;;12.47;;
14474;SDS011;7323;50.848;4.334;2023-01-28T12:09:59;15.17;;;11.40;;
14474;SDS011;7323;50.848;4.334;2023-01-28T12:30:02;14.57;;;11.40;;
14474;SDS011;7323;50.848;4.334;2023-01-28T12:42:22;14.57;;;10.80;;
14474;SDS011;7323;50.848;4.334;2023-01-28T12:45:04;15.00;;;12.03;;
14474;SDS011;7323;50.848;4.334;2023-01-28T12:47:50;21.87;;;12.27;;
14474;SDS011;7323;50.848;4.334;2023-01-28T12:50:54;18.43;;;12.70;;
14474;SDS011;7323;50.848;4.334;2023-01-28T12:53:46;16.00;;;11.67;;
14474;SDS011;7323;50.848;4.334;2023-01-28T12:56:17;14.47;;;10.90;;
14474;SDS011;7323;50.848;4.334;2023-01-28T12:58:53;14.83;;;11.20;;
14474;SDS011;7323;50.848;4.334;2023-01-28T13:01:33;14.30;;;11.10;;
14474;SDS011;7323;50.848;4.334;2023-01-28T13:06:54;14.70;;;11.63;;
14474;SDS011;7323;50.848;4.334;2023-01-28T13:09:31;15.97;;;11.17;;
14474;SDS011;7323;50.848;4.334;2023-01-28T13:12:01;18.43;;;13.03;;
14474;SDS011;7323;50.848;4.334;2023-01-28T13:14:30;15.40;;;12.17;;
14474;SDS011;7323;50.848;4.334;2023-01-28T13:17:24;16.53;;;12.27;;
14474;SDS011;7323;50.848;4.334;2023-01-28T13:19:56;13.43;;;11.03;;
14474;SDS011;7323;50.848;4.334;2023-01-28T13:27:58;13.50;;;11.37;;
14474;SDS011;7323;50.848;4.334;2023-01-28T13:30:27;14.70;;;10.80;;
14474;SDS011;7323;50.848;4.334;2023-01-28T13:33:01;14.43;;;11.30;;
14474;SDS011;7323;50.848;4.334;2023-01-28T13:35:36;15.43;;;10.33;;
14474;SDS011;7323;50.848;4.334;2023-01-28T13:38:09;15.80;;;11.10;;
14474;SDS011;7323;50.848;4.334;2023-01-28T13:40:42;13.83;;;10.63;;
14474;SDS011;7323;50.848;4.334;2023-01-28T13:46:25;14.60;;;11.30;;
14474;SDS011;7323;50.848;4.334;2023-01-28T13:48:57;14.47;;;11.50;;
14474;SDS011;7323;50.848;4.334;2023-01-28T13:51:26;13.63;;;11.17;;
14474;SDS011;7323;50.848;4.334;2023-01-28T13:56:41;13.03;;;10.37;;
14474;SDS011;7323;50.848;4.334;2023-01-28T13:59:31;13.77;;;11.20;;
14474;SDS011;7323;50.848;4.334;2023-01-28T14:02:17;12.77;;;10.43;;
14474;SDS011;7323;50.848;4.334;2023-01-28T14:05:04;13.93;;;10.80;;
14474;SDS011;7323;50.848;4.334;2023-01-28T14:10:22;14.97;;;12.33;;
14474;SDS011;7323;50.848;4.334;2023-01-28T14:15:42;14.30;;;11.40;;
14474;SDS011;7323;50.848;4.334;2023-01-28T14:18:24;16.23;;;11.13;;
14474;SDS011;7323;50.848;4.334;2023-01-28T14:20:52;14.83;;;11.07;;
14474;SDS011;7323;50.848;4.334;2023-01-28T14:23:22;14.90;;;11.87;;
14474;SDS011;7323;50.848;4.334;2023-01-28T14:26:04;15.43;;;12.23;;
14474;SDS011;7323;50.848;4.334;2023-01-28T14:28:49;15.43;;;12.37;;
14474;SDS011;7323;50.848;4.334;2023-01-28T14:31:34;14.53;;;11.83;;
14474;SDS011;7323;50.848;4.334;2023-01-28T14:36:49;13.17;;;11.07;;
14474;SDS011;7323;50.848;4.334;2023-01-28T14:39:18;15.60;;;11.53;;
14474;SDS011;7323;50.848;4.334;2023-01-28T14:41:48;14.77;;;11.63;;
14474;SDS011;7323;50.848;4.334;2023-01-28T14:44:37;15.93;;;12.10;;
14474;SDS011;7323;50.848;4.334;2023-01-28T14:58:23;16.13;;;13.03;;
14474;SDS011;7323;50.848;4.334;2023-01-28T15:00:58;15.80;;;13.33;;
14474;SDS011;7323;50.848;4.334;2023-01-28T15:03:28;15.87;;;12.43;;
14474;SDS011;7323;50.848;4.334;2023-01-28T15:06:04;16.53;;;13.07;;
14474;SDS011;7323;50.848;4.334;2023-01-28T15:08:36;15.37;;;13.00;;
14474;SDS011;7323;50.848;4.334;2023-01-28T15:11:04;16.10;;;12.87;;
14474;SDS011;7323;50.848;4.334;2023-01-28T15:13:35;17.00;;;13.80;;
14474;SDS011;7323;50.848;4.334;2023-01-28T15:16:05;16.90;;;13.27;;
14474;SDS011;7323;50.848;4.334;2023-01-28T15:18:41;14.97;;;13.13;;
14474;SDS011;7323;50.848;4.334;2023-01-28T15:21:09;14.77;;;12.40;;
14474;SDS011;7323;50.848;4.334;2023-01-28T15:23:39;15.53;;;13.13;;
14474;SDS011;7323;50.848;4.334;2023-01-28T15:26:17;16.27;;;13.23;;
14474;SDS011;7323;50.848;4.334;2023-01-28T15:28:45;15.20;;;12.77;;
14474;SDS011;7323;50.848;4.334;2023-01-28T15:31:19;17.97;;;13.93;;
14474;SDS011;7323;50.848;4.334;2023-01-28T15:36:39;15.90;;;12.60;;
14474;SDS011;7323;50.848;4.334;2023-01-28T15:39:28;17.33;;;13.57;;
14474;SDS011;7323;50.848;4.334;2023-01-28T15:41:58;17.13;;;12.73;;
14474;SDS011;7323;50.848;4.334;2023-01-28T15:44:41;17.83;;;14.00;;
14474;SDS011;7323;50.848;4.334;2023-01-28T15:47:22;16.67;;;13.37;;
14474;SDS011;7323;50.848;4.334;2023-01-28T15:50:00;16.33;;;13.60;;
14474;SDS011;7323;50.848;4.334;2023-01-28T15:52:37;20.17;;;14.33;;
14474;SDS011;7323;50.848;4.334;2023-01-28T15:55:06;17.03;;;13.63;;
14474;SDS011;7323;50.848;4.334;2023-01-28T15:57:53;17.97;;;13.10;;
14474;SDS011;7323;50.848;4.334;2023-01-28T16:00:26;16.70;;;13.07;;
14474;SDS011;7323;50.848;4.334;2023-01-28T16:02:52;17.00;;;13.80;;
14474;SDS011;7323;50.848;4.334;2023-01-28T16:05:37;17.23;;;13.63;;
14474;SDS011;7323;50.848;4.334;2023-01-28T16:08:14;19.43;;;13.80;;
14474;SDS011;7323;50.848;4.334;2023-01-28T16:10:59;20.40;;;13.57;;
14474;SDS011;7323;50.848;4.334;2023-01-28T16:13:26;18.73;;;13.60;;
14474;SDS011;7323;50.848;4.334;2023-01-28T16:15:57;20.00;;;14.90;;
14474;SDS011;7323;50.848;4.334;2023-01-28T16:18:36;20.50;;;14.67;;
14474;SDS011;7323;50.848;4.334;2023-01-28T16:21:04;15.93;;;13.17;;
14474;SDS011;7323;50.848;4.334;2023-01-28T16:23:37;17.00;;;13.47;;
14474;SDS011;7323;50.848;4.334;2023-01-28T16:26:05;19.60;;;13.80;;
14474;SDS011;7323;50.848;4.334;2023-01-28T16:28:45;18.37;;;13.67;;
14474;SDS011;7323;50.848;4.334;2023-01-28T16:31:10;18.77;;;14.03;;
14474;SDS011;7323;50.848;4.334;2023-01-28T16:33:38;21.30;;;13.73;;
14474;SDS011;7323;50.848;4.334;2023-01-28T16:36:14;17.47;;;13.73;;
14474;SDS011;7323;50.848;4.334;2023-01-28T16:38:43;19.63;;;14.40;;
14474;SDS011;7323;50.848;4.334;2023-01-28T16:41:12;20.40;;;13.47;;
14474;SDS011;7323;50.848;4.334;2023-01-28T16:43:47;16.60;;;12.20;;
14474;SDS011;7323;50.848;4.334;2023-01-28T16:46:16;20.30;;;12.87;;
14474;SDS011;7323;50.848;4.334;2023-01-28T16:48:55;18.07;;;12.13;;
14474;SDS011;7323;50.848;4.334;2023-01-28T16:51:25;16.30;;;12.70;;
14474;SDS011;7323;50.848;4.334;2023-01-28T16:53:51;16.77;;;12.63;;
14474;SDS011;7323;50.848;4.334;2023-01-28T16:56:21;17.07;;;13.57;;
14474;SDS011;7323;50.848;4.334;2023-01-28T17:01:33;16.80;;;13.10;;
14474;SDS011;7323;50.848;4.334;2023-01-28T17:04:01;16.27;;;11.93;;
14474;SDS011;7323;50.848;4.334;2023-01-28T17:06:35;16.17;;;12.30;;
14474;SDS011;7323;50.848;4.334;2023-01-28T17:11:35;16.40;;;12.13;;
14474;SDS011;7323;50.848;4.334;2023-01-28T17:14:07;16.43;;;12.23;;
14474;SDS011;7323;50.848;4.334;2023-01-28T17:16:34;14.47;;;11.33;;
14474;SDS011;7323;50.848;4.334;2023-01-28T17:18:59;16.63;;;12.40;;
14474;SDS011;7323;50.848;4.334;2023-01-28T17:21:26;15.37;;;11.97;;
14474;SDS011;7323;50.848;4.334;2023-01-28T17:23:52;17.13;;;12.10;;
14474;SDS011;7323;50.848;4.334;2023-01-28T17:26:18;17.80;;;12.93;;